createdAt,value
2017-09-09T00:00:16.803Z,5.9
2017-09-09T00:01:19.193Z,6
2017-09-09T00:02:21.586Z,5.9
2017-09-09T00:03:23.985Z,5.9
2017-09-09T00:04:26.372Z,5.9
2017-09-09T00:05:28.771Z,5.9
2017-09-09T00:06:31.161Z,6
2017-09-09T00:07:33.560Z,5.9
2017-09-09T00:08:35.957Z,5.9
2017-09-09T00:09:38.348Z,5.9
2017-09-09T00:10:40.743Z,5.9
2017-09-09T00:11:43.475Z,5.9
2017-09-09T00:12:45.870Z,5.9
2017-09-09T00:13:48.263Z,5.9
2017-09-09T00:14:50.654Z,6
2017-09-09T00:15:53.052Z,5.9
2017-09-09T00:16:55.446Z,5.9
2017-09-09T00:17:57.847Z,6
2017-09-09T00:19:00.241Z,5.9
2017-09-09T00:20:02.987Z,5.9
2017-09-09T00:21:05.383Z,5.9
2017-09-09T00:22:07.775Z,6
2017-09-09T00:23:10.172Z,5.9
2017-09-09T00:24:12.891Z,5.9
2017-09-09T00:25:15.290Z,6
2017-09-09T00:26:17.691Z,5.9
2017-09-09T00:27:20.084Z,6
2017-09-09T00:28:22.473Z,5.9
2017-09-09T00:29:25.210Z,5.9
2017-09-09T00:30:27.609Z,5.9
2017-09-09T00:31:30.012Z,5.9
2017-09-09T00:32:32.408Z,5.9
2017-09-09T00:33:34.793Z,5.9
2017-09-09T00:34:37.193Z,5.9
2017-09-09T00:35:39.594Z,5.9
2017-09-09T00:36:41.996Z,5.9
2017-09-09T00:37:44.389Z,5.9
2017-09-09T00:38:46.788Z,5.9
2017-09-09T00:39:49.180Z,5.8
2017-09-09T00:40:51.571Z,5.9
2017-09-09T00:41:54.303Z,5.9
2017-09-09T00:42:56.696Z,5.9
2017-09-09T00:43:59.089Z,5.9
2017-09-09T00:45:01.484Z,5.8
2017-09-09T00:46:03.869Z,5.9
2017-09-09T00:47:06.267Z,5.9
2017-09-09T00:48:08.670Z,5.9
2017-09-09T00:49:11.065Z,5.9
2017-09-09T00:50:13.806Z,5.9
2017-09-09T00:51:16.194Z,5.9
2017-09-09T00:52:18.938Z,5.9
2017-09-09T00:53:21.324Z,5.9
2017-09-09T00:54:23.724Z,5.9
2017-09-09T00:55:26.115Z,5.9
2017-09-09T00:56:28.870Z,5.9
2017-09-09T00:57:31.261Z,5.9
2017-09-09T00:58:33.656Z,5.9
2017-09-09T00:59:36.046Z,5.9
2017-09-09T01:00:38.442Z,5.9
2017-09-09T01:01:40.841Z,5.9
2017-09-09T01:02:43.236Z,5.9
2017-09-09T01:03:45.975Z,5.9
2017-09-09T01:04:48.360Z,5.9
2017-09-09T01:05:50.755Z,5.8
2017-09-09T01:06:53.147Z,5.9
2017-09-09T01:07:55.536Z,5.9
2017-09-09T01:08:57.932Z,5.9
2017-09-09T01:10:00.331Z,5.9
2017-09-09T01:11:02.718Z,5.9
2017-09-09T01:12:05.461Z,5.9
2017-09-09T01:13:07.854Z,5.9
2017-09-09T01:14:10.246Z,5.9
2017-09-09T01:15:12.645Z,5.9
2017-09-09T01:16:15.036Z,5.9
2017-09-09T01:17:17.435Z,5.8
2017-09-09T01:18:19.829Z,5.9
2017-09-09T01:19:22.219Z,6
2017-09-09T01:20:24.950Z,5.9
2017-09-09T01:21:27.692Z,6
2017-09-09T01:22:30.420Z,5.9
2017-09-09T01:23:32.815Z,5.9
2017-09-09T01:24:35.208Z,5.9
2017-09-09T01:25:37.601Z,5.9
2017-09-09T01:26:40.002Z,5.9
2017-09-09T01:27:42.403Z,5.9
2017-09-09T01:28:44.794Z,5.9
2017-09-09T01:29:47.196Z,5.9
2017-09-09T01:30:49.585Z,5.9
2017-09-09T01:31:51.978Z,6
2017-09-09T01:32:54.374Z,5.8
2017-09-09T01:33:56.768Z,5.9
2017-09-09T01:34:59.507Z,5.9
2017-09-09T01:36:01.893Z,5.8
2017-09-09T01:37:04.286Z,5.9
2017-09-09T01:38:06.689Z,5.9
2017-09-09T01:39:09.078Z,5.8
2017-09-09T01:40:11.473Z,5.9
2017-09-09T01:41:13.872Z,5.9
2017-09-09T01:42:16.262Z,5.9
2017-09-09T01:43:18.664Z,5.9
2017-09-09T01:44:21.055Z,5.9
2017-09-09T01:45:23.435Z,5.8
2017-09-09T01:46:25.839Z,5.8
2017-09-09T01:47:28.229Z,5.9
2017-09-09T01:48:30.619Z,5.8
2017-09-09T01:49:33.017Z,5.9
2017-09-09T01:50:35.414Z,5.8
2017-09-09T01:51:37.807Z,5.9
2017-09-09T01:52:40.202Z,5.9
2017-09-09T01:53:42.600Z,5.9
2017-09-09T01:54:44.996Z,5.9
2017-09-09T01:55:47.399Z,5.9
2017-09-09T01:56:49.785Z,5.9
2017-09-09T01:57:52.181Z,5.9
2017-09-09T01:58:54.580Z,5.8
2017-09-09T01:59:56.965Z,5.9
2017-09-09T02:00:59.356Z,5.9
2017-09-09T02:02:01.755Z,5.9
2017-09-09T02:03:04.143Z,5.9
2017-09-09T02:04:06.543Z,5.9
2017-09-09T02:05:08.959Z,5.9
2017-09-09T02:06:11.331Z,5.9
2017-09-09T02:07:13.725Z,5.9
2017-09-09T02:08:16.125Z,5.8
2017-09-09T02:09:18.511Z,5.9
2017-09-09T02:10:20.911Z,5.9
2017-09-09T02:11:23.297Z,5.9
2017-09-09T02:12:25.697Z,5.9
2017-09-09T02:13:28.089Z,5.8
2017-09-09T02:14:30.481Z,5.9
2017-09-09T02:15:32.873Z,5.9
2017-09-09T02:16:35.269Z,5.9
2017-09-09T02:17:37.655Z,5.8
2017-09-09T02:18:40.062Z,5.9
2017-09-09T02:19:42.450Z,5.9
2017-09-09T02:20:45.530Z,5.8
2017-09-09T02:21:47.927Z,5.9
2017-09-09T02:22:50.322Z,5.9
2017-09-09T02:23:52.718Z,5.8
2017-09-09T02:24:55.117Z,5.8
2017-09-09T02:25:57.501Z,5.9
2017-09-09T02:26:59.896Z,5.9
2017-09-09T02:28:02.639Z,5.9
2017-09-09T02:29:05.032Z,5.9
2017-09-09T02:30:07.418Z,5.9
2017-09-09T02:31:09.818Z,5.9
2017-09-09T02:32:12.215Z,5.9
2017-09-09T02:33:14.604Z,5.9
2017-09-09T02:34:16.991Z,5.9
2017-09-09T02:35:19.393Z,5.9
2017-09-09T02:36:21.780Z,5.9
2017-09-09T02:37:24.171Z,5.9
2017-09-09T02:38:26.572Z,5.8
2017-09-09T02:39:28.957Z,5.9
2017-09-09T02:40:31.353Z,5.9
2017-09-09T02:41:33.755Z,5.9
2017-09-09T02:42:36.144Z,5.9
2017-09-09T02:43:38.534Z,5.9
2017-09-09T02:44:40.935Z,5.9
2017-09-09T02:45:43.323Z,5.9
2017-09-09T02:46:45.719Z,5.8
2017-09-09T02:47:48.117Z,5.8
2017-09-09T02:48:50.510Z,5.9
2017-09-09T02:49:52.909Z,5.9
2017-09-09T02:50:55.312Z,5.9
2017-09-09T02:51:57.699Z,5.9
2017-09-09T02:53:00.098Z,5.9
2017-09-09T02:54:02.498Z,5.9
2017-09-09T02:55:04.916Z,5.9
2017-09-09T02:56:07.289Z,5.8
2017-09-09T02:57:09.687Z,5.9
2017-09-09T02:58:12.073Z,5.9
2017-09-09T02:59:14.471Z,5.9
2017-09-09T03:00:16.868Z,5.8
2017-09-09T03:01:19.254Z,5.9
2017-09-09T03:02:22.008Z,5.9
2017-09-09T03:03:24.408Z,5.8
2017-09-09T03:04:26.802Z,5.9
2017-09-09T03:05:29.191Z,5.9
2017-09-09T03:06:31.587Z,5.9
2017-09-09T03:07:33.982Z,5.9
2017-09-09T03:08:36.374Z,5.9
2017-09-09T03:09:38.775Z,5.9
2017-09-09T03:10:41.168Z,5.8
2017-09-09T03:11:43.560Z,5.9
2017-09-09T03:12:45.959Z,5.9
2017-09-09T03:13:48.352Z,5.8
2017-09-09T03:14:50.738Z,5.9
2017-09-09T03:15:53.131Z,5.9
2017-09-09T03:16:55.527Z,5.8
2017-09-09T03:17:57.930Z,5.9
2017-09-09T03:19:00.329Z,5.9
2017-09-09T03:20:02.714Z,5.9
2017-09-09T03:21:05.471Z,5.9
2017-09-09T03:22:07.878Z,6
2017-09-09T03:23:10.270Z,5.9
2017-09-09T03:24:12.667Z,5.8
2017-09-09T03:25:15.393Z,5.9
2017-09-09T03:26:17.782Z,5.9
2017-09-09T03:27:20.191Z,5.9
2017-09-09T03:28:22.583Z,5.9
2017-09-09T03:29:24.967Z,5.9
2017-09-09T03:30:27.359Z,5.9
2017-09-09T03:31:29.763Z,5.9
2017-09-09T03:32:32.149Z,5.8
2017-09-09T03:33:34.904Z,5.9
2017-09-09T03:34:37.309Z,6
2017-09-09T03:35:39.702Z,5.8
2017-09-09T03:36:42.099Z,5.9
2017-09-09T03:37:44.490Z,5.8
2017-09-09T03:38:46.882Z,5.9
2017-09-09T03:39:49.280Z,5.9
2017-09-09T03:40:51.672Z,5.9
2017-09-09T03:41:54.063Z,5.8
2017-09-09T03:42:56.464Z,5.9
2017-09-09T03:43:58.863Z,5.8
2017-09-09T03:45:01.264Z,5.9
2017-09-09T03:46:03.659Z,5.9
2017-09-09T03:47:06.052Z,5.9
2017-09-09T03:48:08.452Z,5.9
2017-09-09T03:49:10.848Z,5.9
2017-09-09T03:50:13.237Z,5.8
2017-09-09T03:51:15.632Z,5.9
2017-09-09T03:52:18.018Z,5.9
2017-09-09T03:53:20.775Z,5.9
2017-09-09T03:54:23.498Z,5.9
2017-09-09T03:55:25.888Z,5.9
2017-09-09T03:56:28.286Z,5.9
2017-09-09T03:57:30.679Z,5.9
2017-09-09T03:58:33.067Z,5.9
2017-09-09T03:59:35.471Z,5.9
2017-09-09T04:00:37.857Z,5.9
2017-09-09T04:01:40.253Z,5.9
2017-09-09T04:02:42.990Z,5.9
2017-09-09T04:03:45.387Z,5.9
2017-09-09T04:04:47.778Z,5.8
2017-09-09T04:05:50.172Z,5.9
2017-09-09T04:06:52.570Z,5.9
2017-09-09T04:07:54.966Z,5.9
2017-09-09T04:08:57.369Z,5.9
2017-09-09T04:09:59.753Z,5.9
2017-09-09T04:11:02.154Z,5.8
2017-09-09T04:12:04.558Z,5.9
2017-09-09T04:13:06.949Z,5.8
2017-09-09T04:14:09.346Z,5.9
2017-09-09T04:15:11.747Z,5.9
2017-09-09T04:16:14.138Z,5.9
2017-09-09T04:17:16.538Z,5.9
2017-09-09T04:18:18.936Z,5.9
2017-09-09T04:19:21.326Z,5.8
2017-09-09T04:20:23.719Z,5.9
2017-09-09T04:21:26.470Z,5.8
2017-09-09T04:22:28.867Z,5.9
2017-09-09T04:23:31.262Z,5.9
2017-09-09T04:24:33.649Z,5.9
2017-09-09T04:25:36.051Z,5.9
2017-09-09T04:26:38.447Z,5.9
2017-09-09T04:27:41.191Z,5.9
2017-09-09T04:28:43.586Z,5.9
2017-09-09T04:29:45.986Z,5.9
2017-09-09T04:30:48.748Z,5.9
2017-09-09T04:31:51.145Z,5.9
2017-09-09T04:32:53.541Z,5.9
2017-09-09T04:33:55.961Z,5.8
2017-09-09T04:34:58.349Z,5.9
2017-09-09T04:36:00.742Z,5.9
2017-09-09T04:37:03.138Z,5.9
2017-09-09T04:38:05.550Z,5.9
2017-09-09T04:39:07.948Z,5.9
2017-09-09T04:40:10.351Z,5.9
2017-09-09T04:41:12.738Z,5.9
2017-09-09T04:42:15.136Z,5.9
2017-09-09T04:43:17.532Z,5.9
2017-09-09T04:44:19.930Z,5.9
2017-09-09T04:45:22.324Z,5.8
2017-09-09T04:46:24.717Z,5.9
2017-09-09T04:47:27.118Z,5.9
2017-09-09T04:48:29.518Z,5.9
2017-09-09T04:49:31.910Z,5.9
2017-09-09T04:50:34.298Z,5.9
2017-09-09T04:51:36.690Z,5.9
2017-09-09T04:52:39.091Z,5.9
2017-09-09T04:53:41.485Z,5.9
2017-09-09T04:54:43.888Z,5.9
2017-09-09T04:55:46.270Z,5.8
2017-09-09T04:56:48.675Z,5.9
2017-09-09T04:57:51.071Z,5.9
2017-09-09T04:58:53.469Z,5.9
2017-09-09T04:59:56.200Z,5.9
2017-09-09T05:00:58.590Z,5.9
2017-09-09T05:02:00.980Z,5.9
2017-09-09T05:03:03.380Z,5.9
2017-09-09T05:04:05.779Z,5.9
2017-09-09T05:05:08.534Z,5.9
2017-09-09T05:06:10.932Z,5.9
2017-09-09T05:07:13.314Z,5.9
2017-09-09T05:08:15.720Z,5.9
2017-09-09T05:09:18.120Z,5.9
2017-09-09T05:10:20.518Z,5.9
2017-09-09T05:11:22.911Z,5.9
2017-09-09T05:12:25.650Z,5.9
2017-09-09T05:13:28.045Z,5.9
2017-09-09T05:14:30.446Z,5.9
2017-09-09T05:15:32.836Z,5.9
2017-09-09T05:16:35.230Z,5.9
2017-09-09T05:17:37.622Z,5.9
2017-09-09T05:18:40.016Z,5.9
2017-09-09T05:19:42.414Z,6
2017-09-09T05:20:44.802Z,5.9
2017-09-09T05:21:47.222Z,5.9
2017-09-09T05:22:49.597Z,5.9
2017-09-09T05:23:51.996Z,5.9
2017-09-09T05:24:54.398Z,5.9
2017-09-09T05:25:56.790Z,5.9
2017-09-09T05:26:59.187Z,5.9
2017-09-09T05:28:01.580Z,5.9
2017-09-09T05:29:03.985Z,5.9
2017-09-09T05:30:06.372Z,5.9
2017-09-09T05:31:08.767Z,5.9
2017-09-09T05:32:11.169Z,5.9
2017-09-09T05:33:13.572Z,5.9
2017-09-09T05:34:15.965Z,5.9
2017-09-09T05:35:18.364Z,5.9
2017-09-09T05:36:20.758Z,5.9
2017-09-09T05:37:23.152Z,5.8
2017-09-09T05:38:25.553Z,5.9
2017-09-09T05:39:27.943Z,5.9
2017-09-09T05:40:30.673Z,5.9
2017-09-09T05:41:33.416Z,5.8
2017-09-09T05:42:35.817Z,5.9
2017-09-09T05:43:38.213Z,5.8
2017-09-09T05:44:40.612Z,5.9
2017-09-09T05:45:43.006Z,5.9
2017-09-09T05:46:45.394Z,5.9
2017-09-09T05:47:47.796Z,5.9
2017-09-09T05:48:50.190Z,5.8
2017-09-09T05:49:52.586Z,5.8
2017-09-09T05:50:54.984Z,5.9
2017-09-09T05:51:57.377Z,5.9
2017-09-09T05:52:59.778Z,5.9
2017-09-09T05:54:02.178Z,5.9
2017-09-09T05:55:04.561Z,5.9
2017-09-09T05:56:06.956Z,5.9
2017-09-09T05:57:09.355Z,5.9
2017-09-09T05:58:12.088Z,5.9
2017-09-09T05:59:14.485Z,5.9
2017-09-09T06:00:16.878Z,5.9
2017-09-09T06:01:19.280Z,5.8
2017-09-09T06:02:21.675Z,5.9
2017-09-09T06:03:24.068Z,5.9
2017-09-09T06:04:26.465Z,6
2017-09-09T06:05:28.848Z,6
2017-09-09T06:06:31.250Z,5.9
2017-09-09T06:07:33.644Z,5.9
2017-09-09T06:08:36.375Z,5.9
2017-09-09T06:09:38.774Z,5.9
2017-09-09T06:10:41.176Z,5.9
2017-09-09T06:11:43.563Z,5.9
2017-09-09T06:12:45.961Z,6
2017-09-09T06:13:48.345Z,5.9
2017-09-09T06:14:50.744Z,5.9
2017-09-09T06:15:53.145Z,6
2017-09-09T06:16:55.564Z,5.9
2017-09-09T06:17:57.935Z,5.9
2017-09-09T06:19:00.331Z,5.9
2017-09-09T06:20:02.733Z,5.9
2017-09-09T06:21:05.139Z,5.8
2017-09-09T06:22:07.868Z,5.9
2017-09-09T06:23:10.263Z,5.9
2017-09-09T06:24:12.655Z,5.9
2017-09-09T06:25:15.052Z,5.9
2017-09-09T06:26:17.444Z,5.9
2017-09-09T06:27:19.844Z,5.9
2017-09-09T06:28:22.242Z,5.9
2017-09-09T06:29:24.639Z,5.9
2017-09-09T06:30:27.040Z,5.9
2017-09-09T06:31:29.430Z,5.9
2017-09-09T06:32:31.831Z,5.9
2017-09-09T06:33:34.224Z,5.9
2017-09-09T06:34:36.954Z,5.9
2017-09-09T06:35:39.350Z,6
2017-09-09T06:36:41.753Z,5.9
2017-09-09T06:37:44.141Z,5.9
2017-09-09T06:38:46.540Z,5.9
2017-09-09T06:39:48.946Z,5.9
2017-09-09T06:40:51.344Z,5.9
2017-09-09T06:41:53.746Z,5.9
2017-09-09T06:42:56.137Z,6
2017-09-09T06:43:58.523Z,5.9
2017-09-09T06:45:00.946Z,5.9
2017-09-09T06:46:03.337Z,5.9
2017-09-09T06:47:05.729Z,5.8
2017-09-09T06:48:08.131Z,5.9
2017-09-09T06:49:10.519Z,5.9
2017-09-09T06:50:12.916Z,5.9
2017-09-09T06:51:15.317Z,5.9
2017-09-09T06:52:17.705Z,6
2017-09-09T06:53:20.099Z,5.9
2017-09-09T06:54:22.499Z,5.9
2017-09-09T06:55:24.895Z,5.9
2017-09-09T06:56:27.289Z,5.9
2017-09-09T06:57:29.691Z,5.9
2017-09-09T06:58:32.087Z,5.9
2017-09-09T06:59:34.479Z,5.9
2017-09-09T07:00:36.872Z,5.9
2017-09-09T07:01:39.271Z,5.9
2017-09-09T07:02:41.666Z,6
2017-09-09T07:03:44.061Z,5.9
2017-09-09T07:04:46.462Z,5.9
2017-09-09T07:05:49.200Z,6
2017-09-09T07:06:51.596Z,5.9
2017-09-09T07:07:53.999Z,5.9
2017-09-09T07:08:56.396Z,5.9
2017-09-09T07:09:58.784Z,6
2017-09-09T07:11:01.188Z,5.9
2017-09-09T07:12:03.934Z,6
2017-09-09T07:13:06.321Z,5.9
2017-09-09T07:14:08.725Z,5.9
2017-09-09T07:15:11.117Z,6
2017-09-09T07:16:13.861Z,5.9
2017-09-09T07:17:16.602Z,5.9
2017-09-09T07:18:18.987Z,5.9
2017-09-09T07:19:21.388Z,5.9
2017-09-09T07:20:23.789Z,5.9
2017-09-09T07:21:26.184Z,5.9
2017-09-09T07:22:28.588Z,5.9
2017-09-09T07:23:30.985Z,6
2017-09-09T07:24:33.373Z,5.9
2017-09-09T07:25:35.776Z,5.9
2017-09-09T07:26:38.180Z,5.9
2017-09-09T07:27:40.560Z,6
2017-09-09T07:28:42.954Z,6
2017-09-09T07:29:45.694Z,6
2017-09-09T07:30:48.085Z,5.9
2017-09-09T07:31:50.478Z,6
2017-09-09T07:32:52.880Z,6
2017-09-09T07:33:55.278Z,6
2017-09-09T07:34:57.675Z,6
2017-09-09T07:36:00.080Z,5.9
2017-09-09T07:37:02.473Z,5.9
2017-09-09T07:38:04.878Z,5.9
2017-09-09T07:39:07.279Z,6
2017-09-09T07:40:09.677Z,5.9
2017-09-09T07:41:12.070Z,5.9
2017-09-09T07:42:14.465Z,5.9
2017-09-09T07:43:16.855Z,6
2017-09-09T07:44:19.262Z,5.9
2017-09-09T07:45:21.654Z,5.9
2017-09-09T07:46:24.201Z,6
2017-09-09T07:47:26.592Z,5.9
2017-09-09T07:48:28.994Z,6
2017-09-09T07:49:31.727Z,5.9
2017-09-09T07:50:34.127Z,5.9
2017-09-09T07:51:36.525Z,5.9
2017-09-09T07:52:38.922Z,5.9
2017-09-09T07:53:41.323Z,5.9
2017-09-09T07:54:43.721Z,5.9
2017-09-09T07:55:46.452Z,5.9
2017-09-09T07:56:48.847Z,5.9
2017-09-09T07:57:51.241Z,5.9
2017-09-09T07:58:53.646Z,5.9
2017-09-09T07:59:56.034Z,5.9
2017-09-09T08:00:58.425Z,5.9
2017-09-09T08:02:00.824Z,5.9
2017-09-09T08:03:03.226Z,6
2017-09-09T08:04:05.627Z,5.9
2017-09-09T08:05:08.019Z,5.9
2017-09-09T08:06:10.409Z,5.9
2017-09-09T08:07:12.808Z,5.9
2017-09-09T08:08:15.208Z,5.9
2017-09-09T08:09:17.602Z,5.9
2017-09-09T08:10:20.002Z,5.9
2017-09-09T08:11:22.728Z,5.9
2017-09-09T08:12:25.130Z,5.9
2017-09-09T08:13:27.524Z,5.9
2017-09-09T08:14:30.255Z,5.9
2017-09-09T08:15:32.648Z,5.9
2017-09-09T08:16:35.049Z,5.9
2017-09-09T08:17:37.447Z,5.9
2017-09-09T08:18:39.851Z,5.9
2017-09-09T08:19:42.240Z,5.9
2017-09-09T08:20:44.631Z,5.9
2017-09-09T08:21:47.032Z,5.9
2017-09-09T08:22:49.427Z,5.9
2017-09-09T08:23:51.822Z,5.9
2017-09-09T08:24:54.221Z,5.9
2017-09-09T08:25:56.611Z,5.9
2017-09-09T08:26:59.019Z,5.9
2017-09-09T08:28:02.448Z,5.9
2017-09-09T08:29:04.850Z,5.9
2017-09-09T08:30:07.585Z,5.9
2017-09-09T08:31:09.985Z,5.9
2017-09-09T08:32:12.376Z,5.9
2017-09-09T08:33:14.780Z,5.9
2017-09-09T08:34:17.177Z,5.9
2017-09-09T08:35:19.580Z,5.9
2017-09-09T08:36:22.319Z,5.9
2017-09-09T08:37:25.046Z,5.9
2017-09-09T08:38:27.436Z,5.9
2017-09-09T08:39:29.837Z,5.9
2017-09-09T08:40:32.228Z,5.9
2017-09-09T08:41:34.625Z,5.9
2017-09-09T08:42:37.022Z,5.9
2017-09-09T08:43:40.087Z,5.9
2017-09-09T08:44:42.484Z,5.9
2017-09-09T08:45:44.887Z,5.9
2017-09-09T08:46:47.283Z,5.9
2017-09-09T08:47:49.687Z,6
2017-09-09T08:48:52.084Z,5.9
2017-09-09T08:49:54.473Z,5.9
2017-09-09T08:50:56.877Z,5.9
2017-09-09T08:51:59.267Z,5.9
2017-09-09T08:53:01.656Z,5.8
2017-09-09T08:54:04.058Z,5.8
2017-09-09T08:55:06.449Z,5.9
2017-09-09T08:56:08.848Z,5.9
2017-09-09T08:57:11.246Z,5.9
2017-09-09T08:58:13.648Z,5.8
2017-09-09T08:59:16.041Z,5.9
2017-09-09T09:00:18.432Z,6
2017-09-09T09:01:20.832Z,5.9
2017-09-09T09:02:23.225Z,5.8
2017-09-09T09:03:25.971Z,5.8
2017-09-09T09:04:28.490Z,5.9
2017-09-09T09:05:30.882Z,5.9
2017-09-09T09:06:33.577Z,5.9
2017-09-09T09:07:35.981Z,5.9
2017-09-09T09:08:38.370Z,6
2017-09-09T09:09:40.767Z,5.9
2017-09-09T09:10:43.504Z,5.8
2017-09-09T09:11:45.899Z,5.9
2017-09-09T09:12:48.300Z,5.9
2017-09-09T09:13:50.700Z,5.9
2017-09-09T09:14:53.109Z,5.9
2017-09-09T09:15:55.532Z,6
2017-09-09T09:16:57.930Z,5.9
2017-09-09T09:18:00.323Z,5.9
2017-09-09T09:19:03.058Z,5.9
2017-09-09T09:20:05.453Z,5.9
2017-09-09T09:21:07.844Z,5.9
2017-09-09T09:22:10.251Z,5.9
2017-09-09T09:23:12.665Z,5.9
2017-09-09T09:24:15.064Z,5.9
2017-09-09T09:25:17.472Z,5.9
2017-09-09T09:26:19.879Z,5.9
2017-09-09T09:27:22.271Z,5.9
2017-09-09T09:28:24.661Z,6
2017-09-09T09:29:27.059Z,5.9
2017-09-09T09:30:29.464Z,5.9
2017-09-09T09:31:32.743Z,5.9
2017-09-09T09:32:35.444Z,5.9
2017-09-09T09:33:38.121Z,5.9
2017-09-09T09:34:41.663Z,5.9
2017-09-09T09:35:44.062Z,5.9
2017-09-09T09:36:46.458Z,5.9
2017-09-09T09:37:49.625Z,5.9
2017-09-09T09:38:52.998Z,5.9
2017-09-09T09:39:56.322Z,5.9
2017-09-09T09:40:59.514Z,5.9
2017-09-09T09:42:01.929Z,5.9
2017-09-09T09:43:05.331Z,5.9
2017-09-09T09:44:08.839Z,5.9
2017-09-09T09:45:11.575Z,6
2017-09-09T09:46:13.966Z,5.9
2017-09-09T09:47:16.357Z,5.9
2017-09-09T09:48:19.093Z,5.9
2017-09-09T09:49:21.821Z,5.9
2017-09-09T09:50:24.228Z,5.9
2017-09-09T09:51:26.621Z,5.9
2017-09-09T09:52:29.013Z,5.9
2017-09-09T09:53:31.409Z,6
2017-09-09T09:54:33.808Z,5.9
2017-09-09T09:55:36.540Z,5.9
2017-09-09T09:56:38.938Z,5.9
2017-09-09T09:57:41.325Z,5.9
2017-09-09T09:58:43.725Z,5.9
2017-09-09T09:59:46.121Z,5.9
2017-09-09T10:00:48.519Z,5.9
2017-09-09T10:01:50.914Z,5.9
2017-09-09T10:02:53.305Z,5.9
2017-09-09T10:03:55.694Z,5.9
2017-09-09T10:04:58.105Z,5.9
2017-09-09T10:06:00.497Z,5.9
2017-09-09T10:07:02.886Z,5.9
2017-09-09T10:08:05.285Z,5.9
2017-09-09T10:09:07.680Z,5.9
2017-09-09T10:10:10.075Z,6
2017-09-09T10:11:12.477Z,5.9
2017-09-09T10:12:15.210Z,5.9
2017-09-09T10:13:17.602Z,5.8
2017-09-09T10:14:20.005Z,5.9
2017-09-09T10:15:22.394Z,5.9
2017-09-09T10:16:24.791Z,5.9
2017-09-09T10:17:27.189Z,5.9
2017-09-09T10:18:29.582Z,5.9
2017-09-09T10:19:31.980Z,5.9
2017-09-09T10:20:34.381Z,5.9
2017-09-09T10:21:36.772Z,5.9
2017-09-09T10:22:39.171Z,5.9
2017-09-09T10:23:41.568Z,5.9
2017-09-09T10:24:43.952Z,5.9
2017-09-09T10:25:46.351Z,5.9
2017-09-09T10:26:48.748Z,5.9
2017-09-09T10:27:51.483Z,5.9
2017-09-09T10:28:53.871Z,5.8
2017-09-09T10:29:56.274Z,5.9
2017-09-09T10:30:58.660Z,5.9
2017-09-09T10:32:01.045Z,5.9
2017-09-09T10:33:03.439Z,5.9
2017-09-09T10:34:05.841Z,5.9
2017-09-09T10:35:08.234Z,5.8
2017-09-09T10:36:10.633Z,5.9
2017-09-09T10:37:13.027Z,5.9
2017-09-09T10:38:15.420Z,5.9
2017-09-09T10:39:17.819Z,5.8
2017-09-09T10:40:20.219Z,5.9
2017-09-09T10:41:22.614Z,5.9
2017-09-09T10:42:25.018Z,5.9
2017-09-09T10:43:27.412Z,5.8
2017-09-09T10:44:29.801Z,5.9
2017-09-09T10:45:32.199Z,5.9
2017-09-09T10:46:34.701Z,5.8
2017-09-09T10:47:37.426Z,5.9
2017-09-09T10:48:39.834Z,5.9
2017-09-09T10:49:42.221Z,5.9
2017-09-09T10:50:44.623Z,5.9
2017-09-09T10:51:47.019Z,5.9
2017-09-09T10:52:49.410Z,5.9
2017-09-09T10:53:51.800Z,5.8
2017-09-09T10:54:54.198Z,5.9
2017-09-09T10:55:56.589Z,5.9
2017-09-09T10:56:58.980Z,5.8
2017-09-09T10:58:01.372Z,5.8
2017-09-09T10:59:03.775Z,5.9
2017-09-09T11:00:06.171Z,5.9
2017-09-09T11:01:08.561Z,5.8
2017-09-09T11:02:10.968Z,5.9
2017-09-09T11:03:13.361Z,5.9
2017-09-09T11:04:15.766Z,5.9
2017-09-09T11:05:18.160Z,5.9
2017-09-09T11:06:20.554Z,5.8
2017-09-09T11:07:22.944Z,5.9
2017-09-09T11:08:25.683Z,5.9
2017-09-09T11:09:28.073Z,5.9
2017-09-09T11:10:30.473Z,5.9
2017-09-09T11:11:32.867Z,5.9
2017-09-09T11:12:35.264Z,5.9
2017-09-09T11:13:37.663Z,5.8
2017-09-09T11:14:40.420Z,6.1
2017-09-09T11:15:42.811Z,5.9
2017-09-09T11:16:45.211Z,5.9
2017-09-09T11:17:47.605Z,5.9
2017-09-09T11:18:50.003Z,5.9
2017-09-09T11:19:52.396Z,5.9
2017-09-09T11:20:54.791Z,5.9
2017-09-09T11:21:57.179Z,5.9
2017-09-09T11:22:59.583Z,5.9
2017-09-09T11:24:01.975Z,5.9
2017-09-09T11:25:04.371Z,5.9
2017-09-09T11:26:06.763Z,5.9
2017-09-09T11:27:09.160Z,5.9
2017-09-09T11:28:11.554Z,5.9
2017-09-09T11:29:13.942Z,5.9
2017-09-09T11:30:16.345Z,5.9
2017-09-09T11:31:18.742Z,5.9
2017-09-09T11:32:21.470Z,5.9
2017-09-09T11:33:23.865Z,6
2017-09-09T11:34:26.262Z,5.9
2017-09-09T11:35:29.004Z,5.9
2017-09-09T11:36:31.397Z,5.9
2017-09-09T11:37:33.783Z,5.8
2017-09-09T11:38:36.187Z,5.9
2017-09-09T11:39:38.580Z,5.9
2017-09-09T11:40:40.981Z,5.9
2017-09-09T11:41:43.373Z,6
2017-09-09T11:42:45.776Z,5.9
2017-09-09T11:43:48.161Z,5.9
2017-09-09T11:44:50.563Z,5.9
2017-09-09T11:45:52.960Z,5.9
2017-09-09T11:46:55.344Z,5.9
2017-09-09T11:47:57.743Z,5.9
2017-09-09T11:49:00.141Z,5.9
2017-09-09T11:50:02.533Z,5.9
2017-09-09T11:51:04.927Z,5.9
2017-09-09T11:52:07.325Z,5.9
2017-09-09T11:53:09.719Z,5.9
2017-09-09T11:54:12.122Z,6
2017-09-09T11:55:15.218Z,6
2017-09-09T11:56:17.623Z,5.9
2017-09-09T11:57:20.027Z,5.9
2017-09-09T11:58:22.756Z,5.9
2017-09-09T11:59:25.149Z,6
2017-09-09T12:00:27.540Z,6
2017-09-09T12:01:29.943Z,5.9
2017-09-09T12:02:32.325Z,6
2017-09-09T12:03:34.737Z,6
2017-09-09T12:04:37.128Z,6
2017-09-09T12:05:39.520Z,6
2017-09-09T12:06:41.920Z,6
2017-09-09T12:07:44.323Z,6
2017-09-09T12:08:46.718Z,6
2017-09-09T12:09:49.120Z,6.1
2017-09-09T12:10:51.508Z,6.1
2017-09-09T12:11:53.907Z,6.1
2017-09-09T12:12:56.304Z,6.1
2017-09-09T12:13:58.706Z,6.1
2017-09-09T12:15:01.438Z,6.1
2017-09-09T12:16:03.837Z,6.1
2017-09-09T12:17:06.232Z,6.2
2017-09-09T12:18:08.636Z,6.1
2017-09-09T12:19:11.042Z,6.1
2017-09-09T12:20:13.775Z,6.2
2017-09-09T12:21:16.167Z,6.2
2017-09-09T12:22:18.568Z,6.2
2017-09-09T12:23:20.967Z,6.2
2017-09-09T12:24:23.365Z,6.2
2017-09-09T12:25:25.769Z,6.2
2017-09-09T12:26:28.170Z,6.2
2017-09-09T12:27:30.562Z,6.2
2017-09-09T12:28:32.960Z,6.2
2017-09-09T12:29:35.369Z,6.2
2017-09-09T12:30:37.764Z,6.2
2017-09-09T12:31:40.159Z,6.3
2017-09-09T12:32:42.566Z,6.2
2017-09-09T12:33:44.996Z,6.2
2017-09-09T12:34:47.360Z,6.2
2017-09-09T12:35:50.103Z,6.2
2017-09-09T12:36:52.492Z,6.3
2017-09-09T12:37:54.896Z,6.3
2017-09-09T12:38:57.300Z,6.3
2017-09-09T12:39:59.697Z,6.3
2017-09-09T12:41:02.098Z,6.3
2017-09-09T12:42:04.494Z,6.3
2017-09-09T12:43:06.900Z,6.3
2017-09-09T12:44:09.308Z,6.3
2017-09-09T12:45:11.699Z,6.3
2017-09-09T12:46:14.100Z,6.3
2017-09-09T12:47:16.497Z,6.3
2017-09-09T12:48:18.899Z,6.3
2017-09-09T12:49:21.307Z,6.3
2017-09-09T12:50:23.704Z,6.3
2017-09-09T12:51:26.098Z,6.3
2017-09-09T12:52:28.501Z,6.4
2017-09-09T12:53:30.910Z,6.4
2017-09-09T12:54:33.319Z,6.4
2017-09-09T12:55:35.716Z,6.4
2017-09-09T12:56:38.119Z,6.5
2017-09-09T12:57:40.516Z,6.5
2017-09-09T12:58:42.917Z,6.5
2017-09-09T12:59:45.321Z,6.5
2017-09-09T13:00:47.723Z,6.5
2017-09-09T13:01:50.127Z,6.5
2017-09-09T13:02:52.876Z,6.5
2017-09-09T13:03:55.273Z,6.5
2017-09-09T13:04:58.014Z,6.5
2017-09-09T13:06:00.412Z,6.5
2017-09-09T13:07:02.816Z,6.5
2017-09-09T13:08:05.561Z,6.5
2017-09-09T13:09:07.963Z,6.4
2017-09-09T13:10:10.365Z,6.4
2017-09-09T13:11:12.796Z,6.4
2017-09-09T13:12:15.195Z,6.4
2017-09-09T13:13:17.928Z,6.4
2017-09-09T13:14:20.333Z,6.4
2017-09-09T13:15:22.735Z,6.4
2017-09-09T13:16:25.128Z,6.4
2017-09-09T13:17:27.539Z,6.4
2017-09-09T13:18:29.937Z,6.4
2017-09-09T13:19:32.340Z,6.4
2017-09-09T13:20:34.746Z,6.4
2017-09-09T13:21:37.148Z,6.5
2017-09-09T13:22:39.555Z,6.5
2017-09-09T13:23:41.954Z,6.5
2017-09-09T13:24:44.361Z,6.5
2017-09-09T13:25:46.759Z,6.4
2017-09-09T13:26:49.159Z,6.5
2017-09-09T13:27:51.574Z,6.5
2017-09-09T13:28:53.970Z,6.5
2017-09-09T13:29:56.382Z,6.4
2017-09-09T13:30:58.789Z,6.5
2017-09-09T13:32:01.193Z,6.5
2017-09-09T13:33:03.590Z,6.5
2017-09-09T13:34:06.003Z,6.5
2017-09-09T13:35:08.735Z,6.5
2017-09-09T13:36:11.142Z,6.5
2017-09-09T13:37:13.539Z,6.5
2017-09-09T13:38:15.939Z,6.5
2017-09-09T13:39:18.348Z,6.5
2017-09-09T13:40:20.755Z,6.4
2017-09-09T13:41:23.147Z,6.4
2017-09-09T13:42:25.553Z,6.4
2017-09-09T13:43:27.954Z,6.4
2017-09-09T13:44:30.354Z,6.4
2017-09-09T13:45:32.764Z,6.4
2017-09-09T13:46:35.176Z,6.4
2017-09-09T13:47:37.624Z,6.4
2017-09-09T13:48:40.377Z,6.4
2017-09-09T13:49:42.780Z,6.4
2017-09-09T13:50:45.183Z,6.4
2017-09-09T13:51:47.590Z,6.4
2017-09-09T13:52:49.988Z,6.3
2017-09-09T13:53:52.383Z,6.4
2017-09-09T13:54:55.061Z,6.4
2017-09-09T13:55:57.472Z,6.4
2017-09-09T13:56:59.873Z,6.4
2017-09-09T13:58:02.283Z,6.4
2017-09-09T13:59:04.693Z,6.4
2017-09-09T14:00:07.088Z,6.4
2017-09-09T14:01:09.511Z,6.5
2017-09-09T14:02:11.921Z,6.4
2017-09-09T14:03:14.328Z,6.5
2017-09-09T14:04:16.733Z,6.5
2017-09-09T14:05:19.135Z,6.5
2017-09-09T14:06:21.896Z,6.5
2017-09-09T14:07:24.307Z,6.5
2017-09-09T14:08:26.714Z,6.5
2017-09-09T14:09:29.116Z,6.5
2017-09-09T14:10:31.532Z,6.6
2017-09-09T14:11:33.932Z,6.6
2017-09-09T14:12:36.344Z,6.6
2017-09-09T14:13:38.741Z,6.6
2017-09-09T14:14:41.141Z,6.6
2017-09-09T14:15:43.557Z,6.6
2017-09-09T14:16:46.299Z,6.6
2017-09-09T14:17:48.701Z,6.6
2017-09-09T14:18:51.101Z,6.6
2017-09-09T14:19:53.502Z,6.6
2017-09-09T14:20:55.905Z,6.6
2017-09-09T14:21:58.317Z,6.6
2017-09-09T14:23:00.712Z,6.6
2017-09-09T14:24:03.108Z,6.6